首页
METAR-TAF:

METAR-TAF

机场 :

蒂鲁帕蒂, 印度

纬度: 13-38-16N, 经度: 79-32-50E, 海拔: 107米

当前天气观测

该预报发布于1小时和35分钟前的02:30 UTC
风速3节,风向北转东北
温度 31°C
湿度 59%
气压 1004 hPa
能見度: 6000
少量云层高于2000英尺

METAR: VOTP 220230Z 02003KT 6000 FEW020 31/22 Q1004 NOSIG

时间: 09:35 (04:05 UTC)

预报

该预报发布于2小时和5分钟前的02:00 UTC
预报有效从22日的 03点(UTC)到 22日的 12点(UTC)
风速12节,风向西南
能見度: 6000
散云层高于2000英尺
成为
从 22日的 04点(UTC)到 22日的 06点(UTC)
风速12节,风向西
能見度: 6000
散云层高于1500英尺
散云层高于2500英尺
短暂存在
从 22日的 10点(UTC)到 22日的 12点(UTC)
风速10节,风向西
能見度: 3000
散云层高于1000英尺
散云层高于1500英尺
少量云层高于3000英尺, 积雨云.
多云层高于8000英尺
雷暴, 雨, 雨,

TAF: VOTP 220200Z 2203/2212 23012KT 6000 SCT020 BECMG 2204/2206 27012KT 6000 SCT015 SCT025 TEMPO 2210/2212 27010KT 3000 TSRA RA SCT010 SCT015 FEW030CB BKN080

超过4000个机场的气象观测和天气预报(METAR&TAF报告)。

可查询的气象台以黄色和红色小点在地图上表示。

将鼠标移到小点上方,可查看气象台名称。

然后点击查看天气观测和预报。

如需切换地图:点击带黑十字的绿色按钮放大地图;点击带横线的绿色按钮缩小地图;或者点击绿色箭头查看邻近地区的地图。


METAR-TAF: